Montville, Connecticut
Current Conditions -  °F | °C
As of 12:56 PM on Wednesday 28 Jan 2015 (Local Time) from KGON Reporting Station
Clear Clear  
Wind Chill: 10°   Ceiling: Unl
Heat Index: 22°   Visibility: 10mi
Dew Point:   Wind: 13mph
Humidity: 51%   Direction: 340°NNW
Pressure: 29.99"   Gusts: NA
Location:  41.45°N, 72.14°W
Report Text: KGON 281756Z 34011KT 10SM CLR M06/M14 A2999 RMK AO2 SLP155 T10561144 11056 21111 50004
Loading
Personal Weather Stations






























Interactive Weather Map New forecast layout! Learn more

10-Day Weather Forecast

Advertisements
Track Severe Weather on mobile